This is the latest recevied weather packets stored in our database for station/object KB1JDX. If no packets are shown the sender has not sent any weather packets the latest 10 day(s).
| Time | Temp. | Humidity | Pressure | Rain* | Wind** | Luminosity | Snow |
|---|---|---|---|---|---|---|---|
| 1778263236 | 15° C | 40% | 1008.8 hPa | 0 mm | 1.79 m/s, 314° | - | - |
| 1778262036 | 16.11° C | 39% | 1008.9 hPa | 0 mm | 0 m/s | - | - |
| 1778260838 | 16.11° C | 41% | 1009 hPa | 0 mm | 0 m/s | - | - |
| 1778260769 | 16.11° C | 40% | 1009.1 hPa | 0 mm | 0 m/s | - | - |
| 1778258438 | 16.11° C | 39% | 1009.4 hPa | 0 mm | 0 m/s | - | - |
| 1778257238 | 16.11° C | 42% | 1009.7 hPa | 0 mm | 0 m/s | - | - |
| 1778257168 | 16.11° C | 42% | 1009.7 hPa | 0 mm | 0 m/s | - | - |
| 1778256038 | 16.11° C | 43% | 1009.8 hPa | 0 mm | 0 m/s | - | - |
| 1778254838 | 16.11° C | 42% | 1009.9 hPa | 0 mm | 0 m/s | - | - |
| 1778253637 | 15.56° C | 43% | 1010 hPa | 0 mm | 1.79 m/s, 299° | - | - |
| 1778253569 | 15.56° C | 42% | 1010.1 hPa | 0 mm | 0 m/s | - | - |
| 1778252437 | 15° C | 42% | 1010.1 hPa | 0 mm | 0 m/s | - | - |
| 1778251236 | 15° C | 42% | 1010.2 hPa | 0 mm | 0.45 m/s, 197° | - | - |
| 1778250037 | 14.44° C | 45% | 1010.2 hPa | 0 mm | 0.45 m/s, 310° | - | - |
| 1778249968 | 14.44° C | 46% | 1010.3 hPa | 0 mm | 2.24 m/s, 309° | - | - |
| 1778248838 | 13.33° C | 47% | 1010.5 hPa | 0 mm | 0 m/s | - | - |
| 1778247638 | 13.33° C | 48% | 1010.8 hPa | 0 mm | 0 m/s | - | - |
| 1778246436 | 13.33° C | 47% | 1010.7 hPa | 0 mm | 0 m/s | - | - |
| 1778246368 | 12.78° C | 48% | 1010.8 hPa | 0 mm | 0 m/s | - | - |
| 1778245236 | 12.22° C | 51% | 1010.8 hPa | 0 mm | 0 m/s | - | - |
| 1778244037 | 11.11° C | 54% | 1010.8 hPa | 0 mm | 0 m/s | - | - |
| 1778242838 | 9.44° C | 58% | 1010.8 hPa | 0 mm | 0 m/s | - | - |
| 1778242768 | 9.44° C | 58% | 1010.8 hPa | 0 mm | 0 m/s | - | - |
| 1778241636 | 7.22° C | 67% | 1010.8 hPa | 0 mm | 0 m/s | - | - |
| 1778240437 | 6.67° C | 56% | 1010.9 hPa | 0 mm | 0 m/s | - | - |
* Rain latest hour (hover to see other rain measurements)
** Current wind speed in m/s (hover to see current wind gust speed)